Ana Sayfa
METAR-TAF:

METAR-TAF

Havaalanları :

Maiduguri, Nijerya

Enlem: 11-51N, Boylam: 013-05E, yükseklik: 354 m

METAR: eksik

Saat: 11:19 (10:19 UTC)

Tahmin

Rapor saat 05:00 UTC de 5 saat ve 19 dakika önce yapıldı.
Ayın 22'si saat 06 UTC'den ayın 23'si saat 12 UTC'ye kadar geçerli Tahmin
Rüzgar kuzeydoğudan 10 kt
Görüş mesafesi: 3000 m
Toz Pusu
Dönüşüyor
ayın 22'si saat 07 UTC'den ayın 22'si saat 09 UTC'ye kadar
Görüş mesafesi: 5000 m

TAF: DNMA 220500Z 2206/2312 05010KT 3000 HZ NSC BECMG 2207/2209 5000

4.000'den fazla havaalanı için hava durumu gözlemleri ve tahminleri (METAR ve TAF raporları).

Kullanılabilir istasyonlar harita üzerinde sarı ve kırmızı noktalarla gösterilir.

İstasyonun adını görmek için fareyi noktanın üzerinde gezdirin.

Sonrasında hava gözlem ve tahminlerini görmek için tıklayın.

Haritayı değiştirmek için: yaklaştırmak için siyah artı işaretli yeşil düğmeye ve uzaklaştırmak için de eksi işaretli düğmeye hızla tıklayın; bitişik haritalar için yeşil okları kullanın.


METAR-TAF: